Terminal Aerodrome Forecast
Issued by NWS Sioux Falls, SD

Home | Current Version | Previous Version | Graphics & Text | Print | Product List | Glossary On
Versions: 1 2 3 4 5 6 7 8 9 10 11 12 13 14 15 16 17 18 19 20 21 22
000
FTUS43 KFSD 142326
TAFSUX
TAF
KSUX 142326Z 1500/1524 34006KT P6SM FEW250
     FM151000 10005KT P6SM BKN035
     FM151200 12009KT P6SM VCSH BKN045
     FM151500 11008KT P6SM BKN080=

USA.gov is the U.S. government's official web portal to all federal, state and local government web resources and services.